24h
KLIENDITUGI:
Saartelennuliinid: +372 58856336 (24/7)
Estairi piletikassa lennujaamas:
+372 6058887; +372 55603687

13.03.2018 hommikune Transaviabaltika lend KTB680 kell 08:35 (kohalik aeg) Tallinn - Kuressaare väljalend ja KTB681 kell 09:30 Kuressaare – Tallinn väljalend on tühistatud. Lennu tühistamise põhjustab udu Kuressaare lennuväljal. Kõikidele reisijatele tagastatakse piletiraha. Lisainformatsioon +37258856336.

Lennuilm EEKE Kuressaare lennuväli

FCEO32 EETN 130600 TAF EEKE 130600Z 1307/1313 15010KT 0400 FG VV002

TEMPO 1307/1310 0800 FG BECMG 1310/1312 2000 RA BR OVC005 TEMPO 1312/1313 1000 RADZ BR OVC003=

METAR EEKE 130750Z 15007KT 0150 R17/0350 FG VV002 01/01 Q0991 R17/290095=
Kuupäev: 
13/03/2018